SVR1324 URKK-USCC
Flight info
| Callsign | SVR1324 |
|---|---|
| Flight time | 3h 6m |
| Altitude | 37000 |
| Route | N0460F370 SM B950 AG B549 IRGID A944 GUBOR G487 ERSAR DCT BEMES DCT ITAKA DCT AGILA N996 KODUM Z210 AKB L992 MGR T797 GERSI |
| Aircraft | A320/M-VGDW/C |
Departure
| Time | 2026-04-21 12:52 |
|---|---|
| Airport | Krasnodar Pashkovsky International Airport (URKK) |
Arrival
| Time | 2026-04-21 15:58 |
|---|---|
| Airport | Kurchatov Chelyabinsk International Airport (USCC) |
| Time | Latitude | Longitude | Altitude | Speed | Heading |
|---|---|---|---|---|---|
| 2026-04-21 12:29 | 45.03464 | 39.14126 | 106 ft | 0 kts | 330° |
| 2026-04-21 12:40 | 45.03452 | 39.14137 | 106 ft | 3 kts | 321° |
| 2026-04-21 12:40 | 45.03435 | 39.14154 | 106 ft | 1 kts | 332° |
| 2026-04-21 12:40 | 45.03431 | 39.14157 | 106 ft | 0 kts | 332° |
| 2026-04-21 12:43 | 45.03434 | 39.14158 | 106 ft | 1 kts | 1° |
| 2026-04-21 12:43 | 45.03439 | 39.14197 | 105 ft | 8 kts | 80° |
| 2026-04-21 12:43 | 45.03472 | 39.14292 | 104 ft | 13 kts | 60° |
| 2026-04-21 12:43 | 45.03526 | 39.14429 | 106 ft | 18 kts | 60° |
| 2026-04-21 12:44 | 45.03587 | 39.14583 | 105 ft | 17 kts | 61° |
| 2026-04-21 12:44 | 45.03690 | 39.14842 | 105 ft | 14 kts | 60° |
| 2026-04-21 12:44 | 45.03735 | 39.14956 | 106 ft | 13 kts | 60° |
| 2026-04-21 12:45 | 45.03784 | 39.15081 | 105 ft | 16 kts | 61° |
| 2026-04-21 12:45 | 45.03834 | 39.15240 | 106 ft | 19 kts | 88° |
| 2026-04-21 12:45 | 45.03786 | 39.15429 | 107 ft | 23 kts | 112° |
| 2026-04-21 12:45 | 45.03737 | 39.15645 | 111 ft | 24 kts | 94° |
| 2026-04-21 12:46 | 45.03738 | 39.15910 | 107 ft | 29 kts | 89° |
| 2026-04-21 12:46 | 45.03680 | 39.16152 | 105 ft | 27 kts | 153° |
| 2026-04-21 12:46 | 45.03536 | 39.16316 | 106 ft | 27 kts | 140° |
| 2026-04-21 12:46 | 45.03384 | 39.16484 | 106 ft | 27 kts | 143° |
| 2026-04-21 12:47 | 45.03233 | 39.16644 | 106 ft | 28 kts | 142° |
| 2026-04-21 12:47 | 45.03079 | 39.16811 | 106 ft | 28 kts | 142° |
| 2026-04-21 12:47 | 45.02959 | 39.17008 | 105 ft | 23 kts | 116° |
| 2026-04-21 12:47 | 45.02863 | 39.17178 | 106 ft | 21 kts | 142° |
| 2026-04-21 12:48 | 45.02811 | 39.17304 | 107 ft | 13 kts | 59° |
| 2026-04-21 12:48 | 45.02877 | 39.17426 | 107 ft | 20 kts | 53° |
| 2026-04-21 12:48 | 45.02979 | 39.17613 | 106 ft | 28 kts | 52° |
| 2026-04-21 12:48 | 45.03117 | 39.17866 | 107 ft | 36 kts | 53° |
| 2026-04-21 12:49 | 45.03277 | 39.18161 | 106 ft | 38 kts | 52° |
| 2026-04-21 12:49 | 45.03441 | 39.18461 | 107 ft | 39 kts | 52° |
| 2026-04-21 12:49 | 45.03606 | 39.18768 | 107 ft | 39 kts | 52° |
| 2026-04-21 12:49 | 45.03773 | 39.19076 | 107 ft | 40 kts | 52° |
| 2026-04-21 12:50 | 45.03942 | 39.19387 | 107 ft | 40 kts | 52° |
| 2026-04-21 12:50 | 45.04109 | 39.19696 | 108 ft | 38 kts | 52° |
| 2026-04-21 12:50 | 45.04255 | 39.19966 | 107 ft | 31 kts | 53° |
| 2026-04-21 12:50 | 45.04339 | 39.20171 | 108 ft | 20 kts | 91° |
| 2026-04-21 12:51 | 45.04275 | 39.20284 | 118 ft | 10 kts | 149° |
| 2026-04-21 12:51 | 45.04218 | 39.20279 | 119 ft | 10 kts | 216° |
| 2026-04-21 12:51 | 45.04164 | 39.20179 | 118 ft | 20 kts | 232° |
| 2026-04-21 12:51 | 45.03943 | 39.19773 | 116 ft | 85 kts | 232° |
| 2026-04-21 12:52 | 45.03466 | 39.18893 | 118 ft | 138 kts | 232° |
| 2026-04-21 12:52 | 45.02824 | 39.17715 | 431 ft | 155 kts | 232° |
| 2026-04-21 12:52 | 45.02176 | 39.16516 | 1200 ft | 152 kts | 228° |
| 2026-04-21 12:52 | 45.01513 | 39.15301 | 1685 ft | 164 kts | 227° |
| 2026-04-21 12:53 | 45.00693 | 39.14023 | 1954 ft | 187 kts | 224° |
| 2026-04-21 12:53 | 44.99730 | 39.12621 | 2285 ft | 211 kts | 224° |
| 2026-04-21 12:53 | 44.98666 | 39.11088 | 2800 ft | 229 kts | 223° |
| 2026-04-21 12:53 | 44.97538 | 39.09459 | 3663 ft | 234 kts | 224° |
| 2026-04-21 12:54 | 44.96393 | 39.07795 | 4504 ft | 239 kts | 226° |
| 2026-04-21 12:54 | 44.95220 | 39.06081 | 5327 ft | 245 kts | 226° |
| 2026-04-21 12:54 | 44.94030 | 39.04341 | 6179 ft | 248 kts | 226° |
| 2026-04-21 12:54 | 44.92820 | 39.02568 | 6982 ft | 252 kts | 227° |
| 2026-04-21 12:55 | 44.91596 | 39.00767 | 7789 ft | 256 kts | 227° |
| 2026-04-21 12:55 | 44.90356 | 38.98944 | 8630 ft | 258 kts | 227° |
| 2026-04-21 12:55 | 44.89118 | 38.97125 | 9383 ft | 264 kts | 228° |
| 2026-04-21 12:55 | 44.87830 | 38.95237 | 10124 ft | 269 kts | 228° |
| 2026-04-21 12:56 | 44.86482 | 38.93265 | 10444 ft | 290 kts | 228° |
| 2026-04-21 12:56 | 44.85027 | 38.91139 | 10725 ft | 309 kts | 228° |
| 2026-04-21 12:56 | 44.83516 | 38.88940 | 11354 ft | 315 kts | 227° |
| 2026-04-21 12:56 | 44.81997 | 38.86737 | 12101 ft | 318 kts | 227° |
| 2026-04-21 12:57 | 44.80443 | 38.84506 | 12861 ft | 320 kts | 225° |
| 2026-04-21 12:57 | 44.78613 | 38.82684 | 13586 ft | 327 kts | 210° |
| 2026-04-21 12:57 | 44.76445 | 38.81628 | 14251 ft | 335 kts | 194° |
| 2026-04-21 12:57 | 44.74093 | 38.81477 | 14881 ft | 345 kts | 178° |
| 2026-04-21 12:58 | 44.71716 | 38.82213 | 15510 ft | 353 kts | 170° |
| 2026-04-21 12:58 | 44.69327 | 38.83112 | 16086 ft | 356 kts | 170° |
| 2026-04-21 12:58 | 44.66918 | 38.84023 | 16719 ft | 359 kts | 170° |
| 2026-04-21 12:58 | 44.64499 | 38.84935 | 17337 ft | 361 kts | 170° |
| 2026-04-21 12:59 | 44.62088 | 38.85838 | 17983 ft | 364 kts | 171° |
| 2026-04-21 12:59 | 44.59630 | 38.86753 | 18577 ft | 366 kts | 171° |
| 2026-04-21 12:59 | 44.57156 | 38.87669 | 19099 ft | 369 kts | 171° |
| 2026-04-21 12:59 | 44.54663 | 38.88590 | 19621 ft | 372 kts | 171° |
| 2026-04-21 13:00 | 44.52150 | 38.89518 | 20142 ft | 375 kts | 171° |
| 2026-04-21 13:00 | 44.49612 | 38.90456 | 20678 ft | 378 kts | 171° |
| 2026-04-21 13:00 | 44.47049 | 38.91402 | 21207 ft | 381 kts | 171° |
| 2026-04-21 13:00 | 44.44472 | 38.92358 | 21705 ft | 384 kts | 171° |
| 2026-04-21 13:01 | 44.41867 | 38.93329 | 22114 ft | 390 kts | 171° |
| 2026-04-21 13:01 | 44.39258 | 38.94299 | 22563 ft | 395 kts | 171° |
| 2026-04-21 13:01 | 44.36590 | 38.95287 | 23048 ft | 398 kts | 171° |
| 2026-04-21 13:01 | 44.33892 | 38.96283 | 23517 ft | 402 kts | 171° |
| 2026-04-21 13:02 | 44.31171 | 38.97254 | 23923 ft | 405 kts | 172° |
| 2026-04-21 13:02 | 44.28415 | 38.98163 | 24321 ft | 406 kts | 173° |
| 2026-04-21 13:02 | 44.22866 | 38.99872 | 25100 ft | 410 kts | 174° |
| 2026-04-21 13:03 | 44.20069 | 39.00721 | 25456 ft | 412 kts | 173° |
| 2026-04-21 13:03 | 44.17272 | 39.01651 | 25791 ft | 417 kts | 168° |
| 2026-04-21 13:03 | 44.14577 | 39.03174 | 26116 ft | 428 kts | 158° |
| 2026-04-21 13:03 | 44.12031 | 39.05449 | 26408 ft | 440 kts | 147° |
| 2026-04-21 13:04 | 44.09754 | 39.08363 | 26733 ft | 447 kts | 140° |
| 2026-04-21 13:04 | 44.07529 | 39.11420 | 27069 ft | 450 kts | 140° |
| 2026-04-21 13:04 | 44.05288 | 39.14476 | 27403 ft | 452 kts | 140° |
| 2026-04-21 13:04 | 44.03026 | 39.17547 | 27734 ft | 455 kts | 140° |
| 2026-04-21 13:05 | 44.00783 | 39.20582 | 28083 ft | 456 kts | 140° |
| 2026-04-21 13:05 | 43.98500 | 39.23666 | 28418 ft | 459 kts | 140° |
| 2026-04-21 13:05 | 43.96197 | 39.26776 | 28740 ft | 461 kts | 140° |
| 2026-04-21 13:05 | 43.93920 | 39.29942 | 29043 ft | 466 kts | 136° |
| 2026-04-21 13:06 | 43.91924 | 39.33532 | 29335 ft | 474 kts | 126° |
| 2026-04-21 13:06 | 43.90330 | 39.37574 | 29616 ft | 481 kts | 116° |
| 2026-04-21 13:06 | 43.89196 | 39.41956 | 29883 ft | 485 kts | 109° |
| 2026-04-21 13:06 | 43.88225 | 39.46390 | 30127 ft | 488 kts | 109° |
| 2026-04-21 13:07 | 43.87226 | 39.50900 | 30354 ft | 490 kts | 109° |
| 2026-04-21 13:07 | 43.86214 | 39.55415 | 30563 ft | 491 kts | 109° |
| 2026-04-21 13:07 | 43.85189 | 39.59948 | 30743 ft | 493 kts | 109° |
| 2026-04-21 13:07 | 43.84155 | 39.64495 | 30945 ft | 495 kts | 109° |
| 2026-04-21 13:08 | 43.83468 | 39.67517 | 31096 ft | 496 kts | 109° |
| 2026-04-21 13:08 | 43.82081 | 39.73630 | 31455 ft | 496 kts | 109° |
| 2026-04-21 13:08 | 43.81062 | 39.78132 | 31763 ft | 495 kts | 108° |
| 2026-04-21 13:08 | 43.80035 | 39.82671 | 32083 ft | 493 kts | 109° |
| 2026-04-21 13:09 | 43.79155 | 39.87270 | 32375 ft | 494 kts | 101° |
| 2026-04-21 13:09 | 43.78745 | 39.91988 | 32642 ft | 494 kts | 91° |
| 2026-04-21 13:09 | 43.78833 | 39.96740 | 32882 ft | 493 kts | 82° |
| 2026-04-21 13:09 | 43.79364 | 40.01417 | 33168 ft | 492 kts | 77° |
| 2026-04-21 13:10 | 43.79975 | 40.06085 | 33436 ft | 492 kts | 77° |
| 2026-04-21 13:10 | 43.80579 | 40.10757 | 33718 ft | 492 kts | 77° |
| 2026-04-21 13:10 | 43.81176 | 40.15415 | 33974 ft | 492 kts | 77° |
| 2026-04-21 13:10 | 43.81761 | 40.20017 | 34227 ft | 491 kts | 78° |
| 2026-04-21 13:11 | 43.82351 | 40.24690 | 34470 ft | 490 kts | 78° |
| 2026-04-21 13:11 | 43.82940 | 40.29330 | 34708 ft | 488 kts | 78° |
| 2026-04-21 13:11 | 43.83524 | 40.33950 | 35003 ft | 485 kts | 78° |
| 2026-04-21 13:11 | 43.84103 | 40.38554 | 35292 ft | 484 kts | 79° |
| 2026-04-21 13:12 | 43.84679 | 40.43150 | 35520 ft | 483 kts | 79° |
| 2026-04-21 13:12 | 43.85255 | 40.47739 | 35689 ft | 482 kts | 79° |
| 2026-04-21 13:12 | 43.85829 | 40.52320 | 35862 ft | 483 kts | 79° |
| 2026-04-21 13:12 | 43.86391 | 40.56845 | 36048 ft | 482 kts | 79° |
| 2026-04-21 13:13 | 43.86958 | 40.61436 | 36235 ft | 482 kts | 79° |
| 2026-04-21 13:13 | 43.87528 | 40.66039 | 36384 ft | 482 kts | 80° |
| 2026-04-21 13:13 | 43.88226 | 40.70593 | 36544 ft | 482 kts | 72° |
| 2026-04-21 13:13 | 43.89351 | 40.74910 | 36712 ft | 480 kts | 65° |
| 2026-04-21 13:14 | 43.90687 | 40.79147 | 36868 ft | 480 kts | 65° |
| 2026-04-21 13:14 | 43.92022 | 40.83416 | 36899 ft | 481 kts | 65° |
| 2026-04-21 13:14 | 43.94669 | 40.91964 | 36889 ft | 481 kts | 65° |
| 2026-04-21 13:15 | 43.97309 | 41.00511 | 36872 ft | 481 kts | 65° |
| 2026-04-21 13:15 | 43.99924 | 41.08996 | 36877 ft | 481 kts | 66° |
| 2026-04-21 13:16 | 44.02546 | 41.17556 | 36873 ft | 481 kts | 66° |
| 2026-04-21 13:16 | 44.04731 | 41.24677 | 36871 ft | 480 kts | 66° |
| 2026-04-21 13:17 | 44.07348 | 41.33237 | 36878 ft | 481 kts | 66° |
| 2026-04-21 13:17 | 44.09957 | 41.41806 | 36871 ft | 481 kts | 67° |
| 2026-04-21 13:18 | 44.11557 | 41.50809 | 36875 ft | 480 kts | 86° |
| 2026-04-21 13:18 | 44.11490 | 41.60031 | 36864 ft | 478 kts | 94° |
| 2026-04-21 13:19 | 44.11247 | 41.69276 | 36858 ft | 478 kts | 93° |
| 2026-04-21 13:19 | 44.11015 | 41.78526 | 36844 ft | 478 kts | 93° |
| 2026-04-21 13:20 | 44.10759 | 41.87775 | 36859 ft | 478 kts | 94° |
| 2026-04-21 13:20 | 44.10488 | 41.96975 | 36864 ft | 478 kts | 94° |
| 2026-04-21 13:21 | 44.10204 | 42.06222 | 36871 ft | 477 kts | 94° |
| 2026-04-21 13:21 | 44.09920 | 42.15472 | 36869 ft | 477 kts | 94° |
| 2026-04-21 13:22 | 44.09645 | 42.24660 | 36854 ft | 477 kts | 94° |
| 2026-04-21 13:22 | 44.09362 | 42.33885 | 36859 ft | 477 kts | 94° |
| 2026-04-21 13:23 | 44.09056 | 42.43047 | 36880 ft | 476 kts | 94° |
| 2026-04-21 13:23 | 44.08735 | 42.52261 | 36880 ft | 477 kts | 94° |
| 2026-04-21 13:24 | 44.08415 | 42.61469 | 36896 ft | 477 kts | 94° |
| 2026-04-21 13:24 | 44.08091 | 42.70696 | 36877 ft | 476 kts | 94° |
| 2026-04-21 13:25 | 44.07770 | 42.79836 | 36892 ft | 475 kts | 94° |
| 2026-04-21 13:25 | 44.07441 | 42.89042 | 36895 ft | 475 kts | 95° |
| 2026-04-21 13:26 | 44.07088 | 42.98224 | 36898 ft | 475 kts | 95° |
| 2026-04-21 13:26 | 44.06726 | 43.07352 | 36900 ft | 475 kts | 95° |
| 2026-04-21 13:27 | 44.06371 | 43.16545 | 36898 ft | 474 kts | 95° |
| 2026-04-21 13:27 | 44.06009 | 43.25706 | 36909 ft | 474 kts | 95° |
| 2026-04-21 13:28 | 44.05637 | 43.34799 | 36915 ft | 473 kts | 95° |
| 2026-04-21 13:28 | 44.05250 | 43.43935 | 36917 ft | 473 kts | 95° |
| 2026-04-21 13:29 | 44.04858 | 43.53072 | 36914 ft | 473 kts | 95° |
| 2026-04-21 13:29 | 44.04464 | 43.62146 | 36915 ft | 472 kts | 95° |
| 2026-04-21 13:30 | 44.04059 | 43.71254 | 36908 ft | 472 kts | 95° |
| 2026-04-21 13:30 | 44.03660 | 43.80352 | 36915 ft | 471 kts | 95° |
| 2026-04-21 13:31 | 44.03246 | 43.89454 | 36926 ft | 471 kts | 96° |
| 2026-04-21 13:31 | 44.02822 | 43.98487 | 36915 ft | 471 kts | 96° |
| 2026-04-21 13:32 | 44.02392 | 44.07559 | 36922 ft | 470 kts | 96° |
| 2026-04-21 13:32 | 44.01949 | 44.16649 | 36923 ft | 470 kts | 96° |
| 2026-04-21 13:33 | 44.01506 | 44.25715 | 36926 ft | 470 kts | 96° |
| 2026-04-21 13:33 | 44.01060 | 44.34708 | 36920 ft | 469 kts | 96° |
| 2026-04-21 13:34 | 44.00609 | 44.43756 | 36926 ft | 470 kts | 96° |
| 2026-04-21 13:34 | 44.00149 | 44.52807 | 36936 ft | 470 kts | 96° |
| 2026-04-21 13:35 | 43.99671 | 44.61872 | 36933 ft | 470 kts | 96° |
| 2026-04-21 13:35 | 43.99196 | 44.70910 | 36935 ft | 469 kts | 96° |
| 2026-04-21 13:36 | 43.98717 | 44.79956 | 36924 ft | 470 kts | 96° |
| 2026-04-21 13:36 | 43.98227 | 44.88961 | 36925 ft | 470 kts | 96° |
| 2026-04-21 13:37 | 43.97721 | 44.98017 | 36929 ft | 470 kts | 97° |
| 2026-04-21 13:37 | 43.97215 | 45.07020 | 36924 ft | 470 kts | 97° |
| 2026-04-21 13:38 | 43.96707 | 45.16071 | 36933 ft | 469 kts | 97° |
| 2026-04-21 13:38 | 43.96189 | 45.25101 | 36934 ft | 469 kts | 97° |
| 2026-04-21 13:39 | 43.95656 | 45.34134 | 36940 ft | 469 kts | 97° |
| 2026-04-21 13:39 | 43.95114 | 45.43172 | 36932 ft | 469 kts | 97° |
| 2026-04-21 13:40 | 43.94574 | 45.52149 | 36918 ft | 469 kts | 97° |
| 2026-04-21 13:40 | 43.94033 | 45.61184 | 36923 ft | 468 kts | 97° |
| 2026-04-21 13:41 | 43.93484 | 45.70197 | 36932 ft | 468 kts | 97° |
| 2026-04-21 13:41 | 43.92914 | 45.79151 | 36934 ft | 468 kts | 97° |
| 2026-04-21 13:42 | 43.92333 | 45.88143 | 36938 ft | 468 kts | 97° |
| 2026-04-21 13:42 | 43.92267 | 45.97221 | 36940 ft | 469 kts | 92° |
| 2026-04-21 13:43 | 43.92283 | 46.06232 | 36935 ft | 469 kts | 92° |
| 2026-04-21 13:43 | 43.92286 | 46.15287 | 36948 ft | 469 kts | 92° |
| 2026-04-21 13:44 | 43.92277 | 46.24328 | 36956 ft | 469 kts | 92° |
| 2026-04-21 13:44 | 43.92266 | 46.33381 | 36963 ft | 468 kts | 92° |
| 2026-04-21 13:45 | 43.92240 | 46.42355 | 36964 ft | 468 kts | 93° |
| 2026-04-21 13:45 | 43.92211 | 46.51389 | 36960 ft | 468 kts | 93° |
| 2026-04-21 13:46 | 43.92176 | 46.60433 | 36964 ft | 468 kts | 93° |
| 2026-04-21 13:46 | 43.92141 | 46.69451 | 36978 ft | 467 kts | 93° |
| 2026-04-21 13:47 | 43.92103 | 46.78400 | 36969 ft | 466 kts | 93° |
| 2026-04-21 13:47 | 43.92043 | 46.87405 | 36977 ft | 466 kts | 93° |
| 2026-04-21 13:48 | 43.91969 | 46.96395 | 36977 ft | 466 kts | 93° |
| 2026-04-21 13:48 | 43.91904 | 47.05391 | 36959 ft | 466 kts | 93° |
| 2026-04-21 13:49 | 43.91835 | 47.14328 | 36968 ft | 465 kts | 94° |
| 2026-04-21 13:49 | 43.91748 | 47.23309 | 36981 ft | 465 kts | 94° |
| 2026-04-21 13:50 | 43.91659 | 47.32280 | 36988 ft | 465 kts | 94° |
| 2026-04-21 13:50 | 43.91566 | 47.41254 | 36990 ft | 464 kts | 94° |
| 2026-04-21 13:51 | 43.91467 | 47.50165 | 36994 ft | 464 kts | 94° |
| 2026-04-21 13:51 | 43.91352 | 47.59142 | 36976 ft | 464 kts | 94° |
| 2026-04-21 13:52 | 43.91229 | 47.68063 | 36979 ft | 464 kts | 94° |
| 2026-04-21 13:52 | 43.91107 | 47.77019 | 36981 ft | 464 kts | 94° |
| 2026-04-21 13:53 | 43.90984 | 47.85992 | 36992 ft | 464 kts | 94° |
| 2026-04-21 13:53 | 43.90841 | 47.94950 | 37000 ft | 464 kts | 95° |
| 2026-04-21 13:54 | 43.90686 | 48.03869 | 37005 ft | 465 kts | 95° |
| 2026-04-21 13:54 | 43.90531 | 48.12845 | 36987 ft | 464 kts | 95° |
| 2026-04-21 13:55 | 43.90375 | 48.21804 | 36984 ft | 464 kts | 95° |
| 2026-04-21 13:55 | 43.90212 | 48.30709 | 36989 ft | 464 kts | 95° |
| 2026-04-21 13:56 | 43.90046 | 48.39682 | 36989 ft | 464 kts | 95° |
| 2026-04-21 13:56 | 43.89867 | 48.48580 | 36992 ft | 465 kts | 95° |
| 2026-04-21 13:57 | 43.89681 | 48.57537 | 36997 ft | 464 kts | 95° |
| 2026-04-21 13:57 | 43.89485 | 48.66517 | 36975 ft | 465 kts | 95° |
| 2026-04-21 13:58 | 43.89283 | 48.75478 | 36983 ft | 465 kts | 96° |
| 2026-04-21 13:58 | 43.89074 | 48.84435 | 36991 ft | 464 kts | 96° |
| 2026-04-21 13:59 | 43.88861 | 48.93335 | 36997 ft | 464 kts | 96° |
| 2026-04-21 13:59 | 43.88641 | 49.02271 | 36995 ft | 464 kts | 96° |
| 2026-04-21 14:00 | 43.88414 | 49.11228 | 36995 ft | 464 kts | 96° |
| 2026-04-21 14:00 | 43.88182 | 49.20130 | 36976 ft | 464 kts | 96° |
| 2026-04-21 14:01 | 43.87931 | 49.29071 | 36986 ft | 464 kts | 96° |
| 2026-04-21 14:01 | 43.87681 | 49.38026 | 36987 ft | 465 kts | 96° |
| 2026-04-21 14:02 | 43.87731 | 49.47002 | 36990 ft | 469 kts | 85° |
| 2026-04-21 14:03 | 43.91285 | 49.59655 | 36983 ft | 478 kts | 62° |
| 2026-04-21 14:03 | 43.94567 | 49.67685 | 36981 ft | 478 kts | 63° |
| 2026-04-21 14:04 | 43.97838 | 49.75754 | 36976 ft | 479 kts | 63° |
| 2026-04-21 14:04 | 44.01100 | 49.83825 | 36981 ft | 479 kts | 63° |
| 2026-04-21 14:05 | 44.04332 | 49.91854 | 36978 ft | 479 kts | 63° |
| 2026-04-21 14:05 | 44.07592 | 49.99947 | 36980 ft | 479 kts | 63° |
| 2026-04-21 14:06 | 44.10854 | 50.08040 | 36978 ft | 479 kts | 63° |
| 2026-04-21 14:06 | 44.14089 | 50.16109 | 36978 ft | 480 kts | 63° |
| 2026-04-21 14:07 | 44.17332 | 50.24241 | 36972 ft | 480 kts | 63° |
| 2026-04-21 14:07 | 44.20572 | 50.32409 | 36981 ft | 480 kts | 63° |
| 2026-04-21 14:08 | 44.23791 | 50.40530 | 36983 ft | 481 kts | 63° |
| 2026-04-21 14:08 | 44.27023 | 50.48704 | 36981 ft | 481 kts | 63° |
| 2026-04-21 14:09 | 44.30253 | 50.56892 | 36981 ft | 481 kts | 63° |
| 2026-04-21 14:09 | 44.33470 | 50.65043 | 36978 ft | 481 kts | 63° |
| 2026-04-21 14:10 | 44.36171 | 50.71920 | 36980 ft | 481 kts | 64° |
| 2026-04-21 14:10 | 44.39362 | 50.80088 | 36972 ft | 482 kts | 64° |
| 2026-04-21 14:11 | 44.42573 | 50.88323 | 36972 ft | 482 kts | 64° |
| 2026-04-21 14:11 | 44.45792 | 50.96577 | 36972 ft | 482 kts | 64° |
| 2026-04-21 14:12 | 44.49001 | 51.04842 | 36964 ft | 483 kts | 64° |
| 2026-04-21 14:12 | 44.52188 | 51.13088 | 36972 ft | 484 kts | 64° |
| 2026-04-21 14:13 | 44.55390 | 51.21398 | 36977 ft | 484 kts | 64° |
| 2026-04-21 14:13 | 44.58581 | 51.29720 | 36977 ft | 483 kts | 64° |
| 2026-04-21 14:14 | 44.61770 | 51.38036 | 36967 ft | 484 kts | 64° |
| 2026-04-21 14:14 | 44.64940 | 51.46301 | 36968 ft | 484 kts | 64° |
| 2026-04-21 14:15 | 44.68122 | 51.54666 | 36971 ft | 485 kts | 64° |
| 2026-04-21 14:15 | 44.71293 | 51.63034 | 36980 ft | 485 kts | 64° |
| 2026-04-21 14:16 | 44.74465 | 51.71415 | 36971 ft | 486 kts | 64° |
| 2026-04-21 14:16 | 44.77638 | 51.79813 | 36977 ft | 486 kts | 64° |
| 2026-04-21 14:17 | 44.81152 | 51.87959 | 36982 ft | 489 kts | 52° |
| 2026-04-21 14:17 | 44.86141 | 51.94384 | 36975 ft | 490 kts | 32° |
| 2026-04-21 14:18 | 44.91970 | 51.99397 | 36968 ft | 490 kts | 31° |
| 2026-04-21 14:18 | 44.97792 | 52.04417 | 36968 ft | 490 kts | 31° |
| 2026-04-21 14:19 | 45.03575 | 52.09425 | 36971 ft | 490 kts | 31° |
| 2026-04-21 14:19 | 45.09411 | 52.14475 | 36967 ft | 492 kts | 31° |
| 2026-04-21 14:20 | 45.15251 | 52.19539 | 36992 ft | 492 kts | 31° |
| 2026-04-21 14:20 | 45.21086 | 52.24607 | 36991 ft | 492 kts | 31° |
| 2026-04-21 14:21 | 45.26929 | 52.29692 | 36989 ft | 491 kts | 31° |
| 2026-04-21 14:21 | 45.32720 | 52.34753 | 36981 ft | 491 kts | 31° |
| 2026-04-21 14:22 | 45.38558 | 52.39864 | 36984 ft | 492 kts | 31° |
| 2026-04-21 14:22 | 45.44350 | 52.44958 | 36988 ft | 492 kts | 31° |
| 2026-04-21 14:23 | 45.50170 | 52.50081 | 36995 ft | 492 kts | 31° |
| 2026-04-21 14:23 | 45.56008 | 52.55226 | 36991 ft | 492 kts | 31° |
| 2026-04-21 14:24 | 45.61834 | 52.60378 | 36990 ft | 492 kts | 31° |
| 2026-04-21 14:24 | 45.67626 | 52.65508 | 36984 ft | 492 kts | 31° |
| 2026-04-21 14:25 | 45.73466 | 52.70683 | 36983 ft | 492 kts | 31° |
| 2026-04-21 14:25 | 45.79292 | 52.75885 | 36981 ft | 493 kts | 31° |
| 2026-04-21 14:26 | 45.85076 | 52.81062 | 37004 ft | 493 kts | 31° |
| 2026-04-21 14:26 | 45.90901 | 52.86276 | 36992 ft | 493 kts | 31° |
| 2026-04-21 14:27 | 45.96733 | 52.91503 | 36988 ft | 494 kts | 31° |
| 2026-04-21 14:27 | 46.02556 | 52.96751 | 36980 ft | 493 kts | 31° |
| 2026-04-21 14:28 | 46.08369 | 53.02004 | 36972 ft | 494 kts | 31° |
| 2026-04-21 14:28 | 46.14157 | 53.07229 | 36972 ft | 494 kts | 31° |
| 2026-04-21 14:29 | 46.19993 | 53.12508 | 36972 ft | 494 kts | 31° |
| 2026-04-21 14:29 | 46.25816 | 53.17792 | 36994 ft | 494 kts | 31° |
| 2026-04-21 14:30 | 46.31610 | 53.23075 | 36978 ft | 495 kts | 31° |
| 2026-04-21 14:30 | 46.37434 | 53.28399 | 36975 ft | 495 kts | 31° |
| 2026-04-21 14:31 | 46.43263 | 53.33741 | 36972 ft | 495 kts | 31° |
| 2026-04-21 14:31 | 46.49102 | 53.39103 | 36960 ft | 496 kts | 31° |
| 2026-04-21 14:32 | 46.54895 | 53.44436 | 36965 ft | 496 kts | 31° |
| 2026-04-21 14:32 | 46.60721 | 53.49817 | 36987 ft | 496 kts | 31° |
| 2026-04-21 14:33 | 46.66551 | 53.55209 | 36976 ft | 497 kts | 31° |
| 2026-04-21 14:33 | 46.72377 | 53.60615 | 36961 ft | 496 kts | 31° |
| 2026-04-21 14:34 | 46.78210 | 53.66044 | 36960 ft | 497 kts | 31° |
| 2026-04-21 14:34 | 46.83996 | 53.71440 | 36957 ft | 496 kts | 31° |
| 2026-04-21 14:35 | 46.89823 | 53.76898 | 36943 ft | 496 kts | 31° |
| 2026-04-21 14:35 | 46.95600 | 53.82321 | 36942 ft | 496 kts | 31° |
| 2026-04-21 14:36 | 47.01429 | 53.87788 | 36973 ft | 496 kts | 31° |
| 2026-04-21 14:36 | 47.07252 | 53.93263 | 36954 ft | 496 kts | 31° |
| 2026-04-21 14:37 | 47.13027 | 53.98714 | 36942 ft | 495 kts | 31° |
| 2026-04-21 14:37 | 47.18824 | 54.04210 | 36939 ft | 495 kts | 31° |
| 2026-04-21 14:38 | 47.24630 | 54.09722 | 36941 ft | 495 kts | 31° |
| 2026-04-21 14:38 | 47.30393 | 54.15198 | 36937 ft | 496 kts | 31° |
| 2026-04-21 14:39 | 47.36193 | 54.20735 | 36930 ft | 495 kts | 31° |
| 2026-04-21 14:39 | 47.41947 | 54.26249 | 36956 ft | 495 kts | 31° |
| 2026-04-21 14:40 | 47.47728 | 54.31801 | 36948 ft | 495 kts | 31° |
| 2026-04-21 14:40 | 47.53506 | 54.37376 | 36938 ft | 495 kts | 31° |
| 2026-04-21 14:41 | 47.59281 | 54.42952 | 36939 ft | 495 kts | 31° |
| 2026-04-21 14:41 | 47.65019 | 54.48500 | 36939 ft | 495 kts | 31° |
| 2026-04-21 14:42 | 47.70788 | 54.54107 | 36935 ft | 495 kts | 31° |
| 2026-04-21 14:42 | 47.76520 | 54.59688 | 36956 ft | 495 kts | 31° |
| 2026-04-21 14:43 | 47.82303 | 54.65324 | 36948 ft | 495 kts | 31° |
| 2026-04-21 14:43 | 47.88062 | 54.70949 | 36940 ft | 494 kts | 31° |
| 2026-04-21 14:44 | 47.93775 | 54.76552 | 36934 ft | 494 kts | 31° |
| 2026-04-21 14:44 | 47.99529 | 54.82211 | 36929 ft | 494 kts | 31° |
| 2026-04-21 14:45 | 48.05236 | 54.87837 | 36926 ft | 494 kts | 31° |
| 2026-04-21 14:45 | 48.10980 | 54.93528 | 36920 ft | 494 kts | 31° |
| 2026-04-21 14:46 | 48.16684 | 54.99196 | 36929 ft | 494 kts | 31° |
| 2026-04-21 14:46 | 48.22413 | 55.04879 | 36939 ft | 494 kts | 31° |
| 2026-04-21 14:47 | 48.28150 | 55.10584 | 36936 ft | 494 kts | 31° |
| 2026-04-21 14:47 | 48.33869 | 55.16304 | 36922 ft | 493 kts | 31° |
| 2026-04-21 14:48 | 48.39569 | 55.22014 | 36911 ft | 494 kts | 31° |
| 2026-04-21 14:48 | 48.45266 | 55.27737 | 36917 ft | 494 kts | 31° |
| 2026-04-21 14:49 | 48.50985 | 55.33516 | 36916 ft | 494 kts | 31° |
| 2026-04-21 14:49 | 48.56705 | 55.39295 | 36911 ft | 494 kts | 31° |
| 2026-04-21 14:50 | 48.61459 | 55.44104 | 36905 ft | 494 kts | 31° |
| 2026-04-21 14:50 | 48.68143 | 55.50879 | 36914 ft | 495 kts | 31° |
| 2026-04-21 14:51 | 48.73837 | 55.56664 | 36925 ft | 496 kts | 31° |
| 2026-04-21 14:51 | 48.79569 | 55.62524 | 36920 ft | 496 kts | 31° |
| 2026-04-21 14:52 | 48.85273 | 55.68391 | 36906 ft | 495 kts | 31° |
| 2026-04-21 14:52 | 48.90986 | 55.74260 | 36910 ft | 495 kts | 31° |
| 2026-04-21 14:53 | 48.96699 | 55.80134 | 36940 ft | 495 kts | 31° |
| 2026-04-21 14:53 | 49.02364 | 55.85991 | 36927 ft | 495 kts | 31° |
| 2026-04-21 14:54 | 49.08071 | 55.91916 | 36912 ft | 495 kts | 32° |
| 2026-04-21 14:54 | 49.13765 | 55.97853 | 36909 ft | 495 kts | 32° |
| 2026-04-21 14:55 | 49.19428 | 56.03753 | 36903 ft | 495 kts | 32° |
| 2026-04-21 14:55 | 49.25118 | 56.09695 | 36905 ft | 495 kts | 32° |
| 2026-04-21 14:56 | 49.30812 | 56.15671 | 36901 ft | 495 kts | 32° |
| 2026-04-21 14:56 | 49.36475 | 56.21614 | 36937 ft | 496 kts | 32° |
| 2026-04-21 14:57 | 49.42164 | 56.27606 | 36919 ft | 495 kts | 32° |
| 2026-04-21 14:57 | 49.47848 | 56.33618 | 36909 ft | 495 kts | 32° |
| 2026-04-21 14:58 | 49.53490 | 56.39607 | 36903 ft | 495 kts | 32° |
| 2026-04-21 14:58 | 49.59151 | 56.45632 | 36899 ft | 494 kts | 32° |
| 2026-04-21 14:59 | 49.64816 | 56.51674 | 36894 ft | 494 kts | 32° |
| 2026-04-21 14:59 | 49.70444 | 56.57698 | 36891 ft | 494 kts | 32° |
| 2026-04-21 15:00 | 49.76102 | 56.63762 | 36882 ft | 495 kts | 32° |
| 2026-04-21 15:00 | 49.81769 | 56.69822 | 36904 ft | 494 kts | 32° |
| 2026-04-21 15:01 | 49.87398 | 56.75861 | 36897 ft | 494 kts | 32° |
| 2026-04-21 15:01 | 49.93053 | 56.81956 | 36879 ft | 494 kts | 32° |
| 2026-04-21 15:02 | 49.98707 | 56.88071 | 36869 ft | 494 kts | 32° |
| 2026-04-21 15:02 | 50.04311 | 56.94144 | 36864 ft | 494 kts | 32° |
| 2026-04-21 15:03 | 50.09033 | 56.99267 | 36859 ft | 494 kts | 32° |
| 2026-04-21 15:03 | 50.14631 | 57.05376 | 36860 ft | 494 kts | 32° |
| 2026-04-21 15:04 | 50.20274 | 57.11538 | 36883 ft | 495 kts | 32° |
| 2026-04-21 15:04 | 50.26021 | 57.17442 | 36876 ft | 492 kts | 24° |
| 2026-04-21 15:05 | 50.32360 | 57.21232 | 36870 ft | 486 kts | 13° |
| 2026-04-21 15:05 | 50.41997 | 57.26103 | 36867 ft | 486 kts | 14° |
| 2026-04-21 15:06 | 50.48404 | 57.29389 | 36859 ft | 487 kts | 14° |
| 2026-04-21 15:06 | 50.54849 | 57.32687 | 36894 ft | 487 kts | 14° |
| 2026-04-21 15:07 | 50.61300 | 57.35974 | 36886 ft | 487 kts | 14° |
| 2026-04-21 15:07 | 50.67760 | 57.39281 | 36885 ft | 487 kts | 14° |
| 2026-04-21 15:08 | 50.74173 | 57.42583 | 36881 ft | 487 kts | 14° |
| 2026-04-21 15:08 | 50.80622 | 57.45924 | 36877 ft | 487 kts | 14° |
| 2026-04-21 15:09 | 50.87077 | 57.49275 | 36900 ft | 487 kts | 14° |
| 2026-04-21 15:09 | 50.93506 | 57.52459 | 36894 ft | 486 kts | 12° |
| 2026-04-21 15:10 | 51.00006 | 57.55406 | 36883 ft | 486 kts | 11° |
| 2026-04-21 15:10 | 51.06518 | 57.58368 | 36873 ft | 486 kts | 12° |
| 2026-04-21 15:11 | 51.13007 | 57.61418 | 36869 ft | 486 kts | 12° |
| 2026-04-21 15:11 | 51.19457 | 57.64508 | 36896 ft | 486 kts | 12° |
| 2026-04-21 15:12 | 51.25948 | 57.67624 | 36881 ft | 485 kts | 12° |
| 2026-04-21 15:12 | 51.32392 | 57.70701 | 36873 ft | 485 kts | 12° |
| 2026-04-21 15:13 | 51.38874 | 57.73770 | 36869 ft | 486 kts | 12° |
| 2026-04-21 15:13 | 51.45355 | 57.76863 | 36864 ft | 485 kts | 12° |
| 2026-04-21 15:14 | 51.51822 | 57.79972 | 36882 ft | 485 kts | 12° |
| 2026-04-21 15:14 | 51.58279 | 57.83093 | 36867 ft | 484 kts | 12° |
| 2026-04-21 15:15 | 51.64733 | 57.86206 | 36857 ft | 484 kts | 12° |
| 2026-04-21 15:15 | 51.71143 | 57.89300 | 36845 ft | 483 kts | 12° |
| 2026-04-21 15:16 | 51.77589 | 57.92445 | 36836 ft | 483 kts | 12° |
| 2026-04-21 15:16 | 51.83993 | 57.95564 | 36864 ft | 482 kts | 12° |
| 2026-04-21 15:17 | 51.90421 | 57.98707 | 36846 ft | 482 kts | 12° |
| 2026-04-21 15:17 | 51.96853 | 58.01863 | 36842 ft | 483 kts | 13° |
| 2026-04-21 15:18 | 52.03284 | 58.05040 | 36825 ft | 483 kts | 13° |
| 2026-04-21 15:18 | 52.09723 | 58.08211 | 36826 ft | 482 kts | 13° |
| 2026-04-21 15:19 | 52.16102 | 58.11363 | 36820 ft | 482 kts | 13° |
| 2026-04-21 15:19 | 52.22546 | 58.14561 | 36815 ft | 482 kts | 13° |
| 2026-04-21 15:20 | 52.28932 | 58.17741 | 36811 ft | 483 kts | 13° |
| 2026-04-21 15:20 | 52.35365 | 58.20954 | 36818 ft | 483 kts | 13° |
| 2026-04-21 15:21 | 52.41795 | 58.24169 | 36814 ft | 483 kts | 13° |
| 2026-04-21 15:21 | 52.48219 | 58.27405 | 36854 ft | 483 kts | 13° |
| 2026-04-21 15:22 | 52.54614 | 58.30632 | 36832 ft | 483 kts | 13° |
| 2026-04-21 15:22 | 52.61033 | 58.33880 | 36821 ft | 482 kts | 13° |
| 2026-04-21 15:23 | 52.67458 | 58.37199 | 36811 ft | 482 kts | 13° |
| 2026-04-21 15:23 | 52.73834 | 58.40532 | 36804 ft | 483 kts | 13° |
| 2026-04-21 15:24 | 52.80245 | 58.43886 | 36791 ft | 483 kts | 13° |
| 2026-04-21 15:24 | 52.86651 | 58.47237 | 36811 ft | 483 kts | 13° |
| 2026-04-21 15:25 | 52.93066 | 58.50597 | 36802 ft | 482 kts | 13° |
| 2026-04-21 15:25 | 52.99425 | 58.53929 | 36798 ft | 482 kts | 13° |
| 2026-04-21 15:26 | 53.05835 | 58.57317 | 36787 ft | 483 kts | 14° |
| 2026-04-21 15:26 | 53.12241 | 58.60717 | 36774 ft | 483 kts | 14° |
| 2026-04-21 15:27 | 53.18610 | 58.64096 | 36801 ft | 483 kts | 13° |
| 2026-04-21 15:27 | 53.25017 | 58.67504 | 36782 ft | 482 kts | 13° |
| 2026-04-21 15:28 | 53.31419 | 58.70918 | 36773 ft | 482 kts | 13° |
| 2026-04-21 15:28 | 53.37815 | 58.74388 | 36756 ft | 483 kts | 17° |
| 2026-04-21 15:29 | 53.43700 | 58.79804 | 36749 ft | 489 kts | 35° |
| 2026-04-21 15:29 | 53.49159 | 58.86636 | 36750 ft | 490 kts | 34° |
| 2026-04-21 15:30 | 53.54643 | 58.93483 | 36775 ft | 490 kts | 34° |
| 2026-04-21 15:30 | 53.60083 | 59.00300 | 36751 ft | 490 kts | 34° |
| 2026-04-21 15:31 | 53.65549 | 59.07186 | 36757 ft | 490 kts | 35° |
| 2026-04-21 15:31 | 53.71015 | 59.14104 | 36758 ft | 490 kts | 35° |
| 2026-04-21 15:32 | 53.76468 | 59.21035 | 36756 ft | 490 kts | 35° |
| 2026-04-21 15:32 | 53.81883 | 59.27928 | 36760 ft | 489 kts | 35° |
| 2026-04-21 15:33 | 53.87333 | 59.34884 | 36744 ft | 489 kts | 35° |
| 2026-04-21 15:33 | 53.92771 | 59.41852 | 36739 ft | 489 kts | 35° |
| 2026-04-21 15:34 | 53.98162 | 59.48800 | 36768 ft | 488 kts | 35° |
| 2026-04-21 15:34 | 54.03572 | 59.55821 | 36744 ft | 489 kts | 36° |
| 2026-04-21 15:35 | 54.08947 | 59.62822 | 36727 ft | 488 kts | 36° |
| 2026-04-21 15:35 | 54.11649 | 59.66348 | 36507 ft | 489 kts | 36° |
| 2026-04-21 15:35 | 54.14354 | 59.69877 | 36095 ft | 489 kts | 36° |
| 2026-04-21 15:36 | 54.17075 | 59.73431 | 35181 ft | 495 kts | 36° |
| 2026-04-21 15:36 | 54.19831 | 59.77035 | 34470 ft | 496 kts | 36° |
| 2026-04-21 15:36 | 54.22525 | 59.80570 | 33970 ft | 492 kts | 36° |
| 2026-04-21 15:36 | 54.25233 | 59.84139 | 33338 ft | 491 kts | 36° |
| 2026-04-21 15:37 | 54.27933 | 59.87707 | 32796 ft | 486 kts | 36° |
| 2026-04-21 15:37 | 54.30601 | 59.91235 | 32235 ft | 483 kts | 36° |
| 2026-04-21 15:37 | 54.33256 | 59.94749 | 31674 ft | 479 kts | 35° |
| 2026-04-21 15:37 | 54.35885 | 59.98233 | 31121 ft | 476 kts | 35° |
| 2026-04-21 15:38 | 54.38491 | 60.01709 | 30580 ft | 474 kts | 36° |
| 2026-04-21 15:38 | 54.41028 | 60.05334 | 30032 ft | 473 kts | 38° |
| 2026-04-21 15:38 | 54.43450 | 60.09055 | 29468 ft | 473 kts | 40° |
| 2026-04-21 15:38 | 54.45850 | 60.12921 | 28923 ft | 470 kts | 42° |
| 2026-04-21 15:39 | 54.48205 | 60.16791 | 28406 ft | 466 kts | 42° |
| 2026-04-21 15:39 | 54.50540 | 60.20619 | 27889 ft | 461 kts | 41° |
| 2026-04-21 15:39 | 54.52871 | 60.24402 | 27392 ft | 457 kts | 41° |
| 2026-04-21 15:39 | 54.55192 | 60.28122 | 26902 ft | 453 kts | 41° |
| 2026-04-21 15:40 | 54.57504 | 60.31797 | 26426 ft | 449 kts | 40° |
| 2026-04-21 15:40 | 54.59776 | 60.35394 | 25949 ft | 446 kts | 40° |
| 2026-04-21 15:40 | 54.62065 | 60.39015 | 25458 ft | 444 kts | 40° |
| 2026-04-21 15:40 | 54.64342 | 60.42619 | 24969 ft | 442 kts | 41° |
| 2026-04-21 15:41 | 54.66597 | 60.46207 | 24452 ft | 440 kts | 41° |
| 2026-04-21 15:41 | 54.68847 | 60.49804 | 23934 ft | 439 kts | 41° |
| 2026-04-21 15:41 | 54.71053 | 60.53445 | 23398 ft | 438 kts | 47° |
| 2026-04-21 15:41 | 54.72895 | 60.57637 | 22811 ft | 437 kts | 60° |
| 2026-04-21 15:42 | 54.74217 | 60.62342 | 22276 ft | 432 kts | 72° |
| 2026-04-21 15:42 | 54.75057 | 60.67277 | 21796 ft | 425 kts | 78° |
| 2026-04-21 15:42 | 54.75802 | 60.72154 | 21253 ft | 423 kts | 78° |
| 2026-04-21 15:42 | 54.76549 | 60.77048 | 20771 ft | 419 kts | 78° |
| 2026-04-21 15:43 | 54.77291 | 60.81916 | 20364 ft | 414 kts | 78° |
| 2026-04-21 15:43 | 54.78027 | 60.86753 | 19769 ft | 415 kts | 78° |
| 2026-04-21 15:43 | 54.78749 | 60.91528 | 19277 ft | 404 kts | 78° |
| 2026-04-21 15:43 | 54.79454 | 60.96207 | 18652 ft | 395 kts | 78° |
| 2026-04-21 15:44 | 54.80133 | 61.00735 | 18184 ft | 381 kts | 78° |
| 2026-04-21 15:44 | 54.80790 | 61.05123 | 17688 ft | 370 kts | 78° |
| 2026-04-21 15:44 | 54.81415 | 61.09313 | 17238 ft | 358 kts | 78° |
| 2026-04-21 15:44 | 54.82027 | 61.13436 | 16805 ft | 347 kts | 79° |
| 2026-04-21 15:45 | 54.82620 | 61.17462 | 16386 ft | 343 kts | 79° |
| 2026-04-21 15:45 | 54.83206 | 61.21458 | 15968 ft | 340 kts | 79° |
| 2026-04-21 15:45 | 54.83790 | 61.25430 | 15553 ft | 338 kts | 79° |
| 2026-04-21 15:45 | 54.84368 | 61.29366 | 15150 ft | 336 kts | 79° |
| 2026-04-21 15:46 | 54.84949 | 61.33309 | 14727 ft | 339 kts | 79° |
| 2026-04-21 15:46 | 54.85532 | 61.37280 | 14315 ft | 341 kts | 79° |
| 2026-04-21 15:46 | 54.86117 | 61.41293 | 13901 ft | 343 kts | 79° |
| 2026-04-21 15:46 | 54.86697 | 61.45274 | 13475 ft | 345 kts | 79° |
| 2026-04-21 15:47 | 54.87286 | 61.49321 | 13008 ft | 345 kts | 79° |
| 2026-04-21 15:47 | 54.87871 | 61.53365 | 12570 ft | 345 kts | 79° |
| 2026-04-21 15:47 | 54.88453 | 61.57409 | 12138 ft | 344 kts | 79° |
| 2026-04-21 15:47 | 54.89034 | 61.61445 | 11745 ft | 343 kts | 79° |
| 2026-04-21 15:48 | 54.89607 | 61.65405 | 11581 ft | 332 kts | 79° |
| 2026-04-21 15:48 | 54.90169 | 61.69294 | 11203 ft | 328 kts | 78° |
| 2026-04-21 15:48 | 54.90717 | 61.73106 | 10570 ft | 323 kts | 78° |
| 2026-04-21 15:48 | 54.91255 | 61.76867 | 9991 ft | 317 kts | 78° |
| 2026-04-21 15:49 | 54.91776 | 61.80494 | 9752 ft | 311 kts | 76° |
| 2026-04-21 15:49 | 54.92675 | 61.83845 | 9359 ft | 303 kts | 52° |
| 2026-04-21 15:49 | 54.94212 | 61.86204 | 8934 ft | 289 kts | 26° |
| 2026-04-21 15:49 | 54.96064 | 61.87274 | 8533 ft | 277 kts | 2° |
| 2026-04-21 15:50 | 54.97953 | 61.87099 | 8132 ft | 270 kts | 344° |
| 2026-04-21 15:50 | 54.99810 | 61.86488 | 7720 ft | 272 kts | 345° |
| 2026-04-21 15:50 | 55.01677 | 61.85890 | 7313 ft | 273 kts | 345° |
| 2026-04-21 15:50 | 55.03552 | 61.85299 | 6873 ft | 274 kts | 345° |
| 2026-04-21 15:51 | 55.05432 | 61.84708 | 6452 ft | 275 kts | 345° |
| 2026-04-21 15:51 | 55.07320 | 61.84111 | 6002 ft | 277 kts | 345° |
| 2026-04-21 15:51 | 55.09219 | 61.83511 | 5535 ft | 278 kts | 345° |
| 2026-04-21 15:51 | 55.11126 | 61.82905 | 5072 ft | 278 kts | 346° |
| 2026-04-21 15:52 | 55.13015 | 61.82307 | 4602 ft | 279 kts | 346° |
| 2026-04-21 15:52 | 55.14919 | 61.81707 | 4243 ft | 274 kts | 346° |
| 2026-04-21 15:52 | 55.16167 | 61.81316 | 4173 ft | 265 kts | 346° |
| 2026-04-21 15:52 | 55.17928 | 61.80762 | 4128 ft | 250 kts | 346° |
| 2026-04-21 15:53 | 55.19600 | 61.80235 | 4038 ft | 238 kts | 347° |
| 2026-04-21 15:53 | 55.21194 | 61.79732 | 3939 ft | 228 kts | 346° |
| 2026-04-21 15:53 | 55.22726 | 61.79246 | 3842 ft | 220 kts | 346° |
| 2026-04-21 15:53 | 55.24216 | 61.78766 | 3733 ft | 216 kts | 347° |
| 2026-04-21 15:54 | 55.25665 | 61.78184 | 3659 ft | 207 kts | 332° |
| 2026-04-21 15:54 | 55.26722 | 61.76751 | 3514 ft | 188 kts | 299° |
| 2026-04-21 15:54 | 55.27180 | 61.74738 | 3289 ft | 170 kts | 277° |
| 2026-04-21 15:54 | 55.27456 | 61.72777 | 3087 ft | 159 kts | 277° |
| 2026-04-21 15:55 | 55.27710 | 61.70966 | 2896 ft | 149 kts | 276° |
| 2026-04-21 15:55 | 55.27953 | 61.69224 | 2701 ft | 146 kts | 276° |
| 2026-04-21 15:55 | 55.28193 | 61.67501 | 2505 ft | 145 kts | 277° |
| 2026-04-21 15:55 | 55.28432 | 61.65786 | 2311 ft | 145 kts | 277° |
| 2026-04-21 15:56 | 55.28673 | 61.64062 | 2116 ft | 146 kts | 277° |
| 2026-04-21 15:56 | 55.28910 | 61.62360 | 1917 ft | 145 kts | 277° |
| 2026-04-21 15:56 | 55.29152 | 61.60618 | 1711 ft | 147 kts | 279° |
| 2026-04-21 15:56 | 55.29391 | 61.58900 | 1491 ft | 142 kts | 284° |
| 2026-04-21 15:57 | 55.29625 | 61.57223 | 1300 ft | 139 kts | 283° |
| 2026-04-21 15:57 | 55.29853 | 61.55574 | 1106 ft | 138 kts | 284° |
| 2026-04-21 15:57 | 55.30080 | 61.53946 | 928 ft | 136 kts | 284° |
| 2026-04-21 15:57 | 55.30304 | 61.52334 | 758 ft | 134 kts | 284° |
| 2026-04-21 15:58 | 55.30492 | 61.50993 | 751 ft | 90 kts | 283° |
| 2026-04-21 15:58 | 55.30602 | 61.50188 | 753 ft | 54 kts | 283° |
| 2026-04-21 15:58 | 55.30680 | 61.49626 | 754 ft | 43 kts | 283° |
| 2026-04-21 15:58 | 55.30747 | 61.49143 | 755 ft | 39 kts | 283° |
| 2026-04-21 15:59 | 55.30807 | 61.48702 | 756 ft | 36 kts | 283° |
| 2026-04-21 15:59 | 55.30855 | 61.48356 | 756 ft | 21 kts | 283° |
| 2026-04-21 15:59 | 55.30835 | 61.48209 | 755 ft | 12 kts | 209° |
| 2026-04-21 15:59 | 55.30742 | 61.48167 | 747 ft | 15 kts | 193° |
| 2026-04-21 16:00 | 55.30673 | 61.48271 | 750 ft | 16 kts | 103° |
| 2026-04-21 16:00 | 55.30646 | 61.48467 | 750 ft | 17 kts | 103° |
| 2026-04-21 16:00 | 55.30615 | 61.48686 | 746 ft | 20 kts | 103° |
| 2026-04-21 16:00 | 55.30582 | 61.48931 | 747 ft | 22 kts | 103° |
| 2026-04-21 16:01 | 55.30546 | 61.49187 | 749 ft | 23 kts | 103° |
| 2026-04-21 16:01 | 55.30509 | 61.49461 | 748 ft | 22 kts | 103° |
| 2026-04-21 16:01 | 55.30473 | 61.49715 | 749 ft | 22 kts | 104° |
| 2026-04-21 16:01 | 55.30437 | 61.49981 | 748 ft | 23 kts | 103° |
| 2026-04-21 16:02 | 55.30400 | 61.50247 | 749 ft | 22 kts | 103° |
| 2026-04-21 16:02 | 55.30362 | 61.50518 | 747 ft | 24 kts | 103° |
| 2026-04-21 16:02 | 55.30323 | 61.50806 | 746 ft | 24 kts | 103° |
| 2026-04-21 16:02 | 55.30284 | 61.51087 | 749 ft | 24 kts | 103° |
| 2026-04-21 16:03 | 55.30255 | 61.51295 | 749 ft | 10 kts | 106° |
| 2026-04-21 16:03 | 55.30193 | 61.51346 | 746 ft | 13 kts | 192° |
| 2026-04-21 16:03 | 55.30086 | 61.51301 | 748 ft | 14 kts | 193° |
| 2026-04-21 16:03 | 55.29992 | 61.51310 | 746 ft | 14 kts | 192° |
| 2026-04-21 16:04 | 55.29926 | 61.51241 | 746 ft | 12 kts | 261° |
| 2026-04-21 16:04 | 55.29920 | 61.51137 | 746 ft | 9 kts | 220° |
| 2026-04-21 16:04 | 55.29888 | 61.51067 | 747 ft | 5 kts | 242° |
| 2026-04-21 16:04 | 55.29885 | 61.51058 | 749 ft | 0 kts | 243° |